sensor_id;sensor_type;location;lat;lon;timestamp;P1;durP1;ratioP1;P2;durP2;ratioP2
43857;SDS011;29507;51.284;5.758;2023-02-15T00:01:27;34.35;;;13.35;;
43857;SDS011;29507;51.284;5.758;2023-02-15T00:03:52;32.13;;;13.63;;
43857;SDS011;29507;51.284;5.758;2023-02-15T00:06:18;33.95;;;13.02;;
43857;SDS011;29507;51.284;5.758;2023-02-15T00:08:44;32.85;;;13.32;;
43857;SDS011;29507;51.284;5.758;2023-02-15T00:11:10;36.63;;;14.20;;
43857;SDS011;29507;51.284;5.758;2023-02-15T00:13:38;31.50;;;13.82;;
43857;SDS011;29507;51.284;5.758;2023-02-15T00:16:08;29.40;;;12.35;;
43857;SDS011;29507;51.284;5.758;2023-02-15T00:18:36;29.85;;;12.85;;
43857;SDS011;29507;51.284;5.758;2023-02-15T00:21:04;33.63;;;14.27;;
43857;SDS011;29507;51.284;5.758;2023-02-15T00:23:31;30.52;;;14.48;;
43857;SDS011;29507;51.284;5.758;2023-02-15T00:26:06;31.50;;;13.00;;
43857;SDS011;29507;51.284;5.758;2023-02-15T00:28:33;33.67;;;13.32;;
43857;SDS011;29507;51.284;5.758;2023-02-15T00:31:17;37.08;;;13.88;;
43857;SDS011;29507;51.284;5.758;2023-02-15T00:33:43;29.77;;;12.13;;
43857;SDS011;29507;51.284;5.758;2023-02-15T00:36:09;30.45;;;12.00;;
43857;SDS011;29507;51.284;5.758;2023-02-15T00:38:35;27.67;;;12.20;;
43857;SDS011;29507;51.284;5.758;2023-02-15T00:41:02;30.58;;;12.60;;
43857;SDS011;29507;51.284;5.758;2023-02-15T00:43:29;36.67;;;14.00;;
43857;SDS011;29507;51.284;5.758;2023-02-15T00:45:56;30.75;;;12.50;;
43857;SDS011;29507;51.284;5.758;2023-02-15T00:48:22;31.88;;;13.32;;
43857;SDS011;29507;51.284;5.758;2023-02-15T00:50:52;37.20;;;13.95;;
43857;SDS011;29507;51.284;5.758;2023-02-15T00:53:19;37.97;;;13.45;;
43857;SDS011;29507;51.284;5.758;2023-02-15T00:55:45;39.55;;;14.70;;
43857;SDS011;29507;51.284;5.758;2023-02-15T00:58:11;29.30;;;12.77;;
43857;SDS011;29507;51.284;5.758;2023-02-15T01:00:38;33.25;;;14.27;;
43857;SDS011;29507;51.284;5.758;2023-02-15T01:03:04;40.38;;;14.48;;
43857;SDS011;29507;51.284;5.758;2023-02-15T01:05:30;29.13;;;12.98;;
43857;SDS011;29507;51.284;5.758;2023-02-15T01:07:57;35.90;;;13.45;;
43857;SDS011;29507;51.284;5.758;2023-02-15T01:10:23;34.00;;;13.95;;
43857;SDS011;29507;51.284;5.758;2023-02-15T01:12:50;31.65;;;12.40;;
43857;SDS011;29507;51.284;5.758;2023-02-15T01:15:17;35.45;;;14.30;;
43857;SDS011;29507;51.284;5.758;2023-02-15T01:17:42;35.40;;;13.60;;
43857;SDS011;29507;51.284;5.758;2023-02-15T01:20:10;37.45;;;14.02;;
43857;SDS011;29507;51.284;5.758;2023-02-15T01:22:36;33.97;;;13.25;;
43857;SDS011;29507;51.284;5.758;2023-02-15T01:25:02;35.30;;;13.75;;
43857;SDS011;29507;51.284;5.758;2023-02-15T01:27:28;31.90;;;13.38;;
43857;SDS011;29507;51.284;5.758;2023-02-15T01:29:55;40.75;;;14.15;;
43857;SDS011;29507;51.284;5.758;2023-02-15T01:32:21;34.70;;;12.80;;
43857;SDS011;29507;51.284;5.758;2023-02-15T01:34:47;30.23;;;12.32;;
43857;SDS011;29507;51.284;5.758;2023-02-15T01:37:12;37.65;;;13.35;;
43857;SDS011;29507;51.284;5.758;2023-02-15T01:39:38;36.30;;;12.98;;
43857;SDS011;29507;51.284;5.758;2023-02-15T01:42:04;35.88;;;14.15;;
43857;SDS011;29507;51.284;5.758;2023-02-15T01:47:37;37.70;;;12.70;;
43857;SDS011;29507;51.284;5.758;2023-02-15T01:50:10;30.67;;;12.50;;
43857;SDS011;29507;51.284;5.758;2023-02-15T01:52:48;32.47;;;12.70;;
43857;SDS011;29507;51.284;5.758;2023-02-15T01:55:38;30.30;;;12.80;;
43857;SDS011;29507;51.284;5.758;2023-02-15T01:58:07;26.95;;;11.80;;
43857;SDS011;29507;51.284;5.758;2023-02-15T02:00:33;37.60;;;14.68;;
43857;SDS011;29507;51.284;5.758;2023-02-15T02:03:00;37.35;;;12.73;;
43857;SDS011;29507;51.284;5.758;2023-02-15T02:05:26;25.10;;;11.18;;
43857;SDS011;29507;51.284;5.758;2023-02-15T02:07:54;33.05;;;13.60;;
43857;SDS011;29507;51.284;5.758;2023-02-15T02:10:23;39.35;;;12.98;;
43857;SDS011;29507;51.284;5.758;2023-02-15T02:12:50;32.08;;;13.40;;
43857;SDS011;29507;51.284;5.758;2023-02-15T02:15:20;33.45;;;12.98;;
43857;SDS011;29507;51.284;5.758;2023-02-15T02:24:05;29.70;;;12.68;;
43857;SDS011;29507;51.284;5.758;2023-02-15T02:34:51;35.28;;;13.77;;
43857;SDS011;29507;51.284;5.758;2023-02-15T02:37:48;31.80;;;12.00;;
43857;SDS011;29507;51.284;5.758;2023-02-15T02:42:59;31.73;;;13.32;;
43857;SDS011;29507;51.284;5.758;2023-02-15T02:48:05;34.50;;;13.02;;
43857;SDS011;29507;51.284;5.758;2023-02-15T02:50:34;33.67;;;13.85;;
43857;SDS011;29507;51.284;5.758;2023-02-15T02:53:00;29.80;;;12.55;;
43857;SDS011;29507;51.284;5.758;2023-02-15T02:55:28;36.10;;;15.13;;
43857;SDS011;29507;51.284;5.758;2023-02-15T02:57:57;36.83;;;12.45;;
43857;SDS011;29507;51.284;5.758;2023-02-15T03:00:28;32.60;;;13.13;;
43857;SDS011;29507;51.284;5.758;2023-02-15T03:03:00;36.58;;;12.60;;
43857;SDS011;29507;51.284;5.758;2023-02-15T03:05:31;41.40;;;13.95;;
43857;SDS011;29507;51.284;5.758;2023-02-15T03:07:59;34.20;;;13.65;;
43857;SDS011;29507;51.284;5.758;2023-02-15T03:10:31;34.47;;;12.18;;
43857;SDS011;29507;51.284;5.758;2023-02-15T03:12:59;37.45;;;13.90;;
43857;SDS011;29507;51.284;5.758;2023-02-15T03:15:27;33.38;;;14.00;;
43857;SDS011;29507;51.284;5.758;2023-02-15T03:18:17;38.83;;;13.35;;
43857;SDS011;29507;51.284;5.758;2023-02-15T03:20:47;38.38;;;14.15;;
43857;SDS011;29507;51.284;5.758;2023-02-15T03:23:16;40.15;;;13.30;;
43857;SDS011;29507;51.284;5.758;2023-02-15T03:25:49;32.85;;;12.88;;
43857;SDS011;29507;51.284;5.758;2023-02-15T03:28:25;37.15;;;12.68;;
43857;SDS011;29507;51.284;5.758;2023-02-15T03:30:57;30.73;;;13.13;;
43857;SDS011;29507;51.284;5.758;2023-02-15T03:33:27;34.30;;;14.85;;
43857;SDS011;29507;51.284;5.758;2023-02-15T03:36:00;36.95;;;13.18;;
43857;SDS011;29507;51.284;5.758;2023-02-15T03:39:09;35.20;;;13.77;;
43857;SDS011;29507;51.284;5.758;2023-02-15T03:41:27;41.92;;;14.20;;
43857;SDS011;29507;51.284;5.758;2023-02-15T03:43:59;36.95;;;13.70;;
43857;SDS011;29507;51.284;5.758;2023-02-15T03:46:43;33.08;;;13.70;;
43857;SDS011;29507;51.284;5.758;2023-02-15T03:49:20;38.25;;;14.73;;
43857;SDS011;29507;51.284;5.758;2023-02-15T03:51:47;33.85;;;13.50;;
43857;SDS011;29507;51.284;5.758;2023-02-15T03:54:16;49.03;;;13.35;;
43857;SDS011;29507;51.284;5.758;2023-02-15T03:57:07;36.83;;;14.20;;
43857;SDS011;29507;51.284;5.758;2023-02-15T04:00:14;39.17;;;14.30;;
43857;SDS011;29507;51.284;5.758;2023-02-15T04:03:06;43.92;;;14.65;;
43857;SDS011;29507;51.284;5.758;2023-02-15T04:05:32;36.03;;;13.73;;
43857;SDS011;29507;51.284;5.758;2023-02-15T04:07:58;34.45;;;14.20;;
43857;SDS011;29507;51.284;5.758;2023-02-15T04:10:24;37.53;;;13.80;;
43857;SDS011;29507;51.284;5.758;2023-02-15T04:13:08;35.20;;;13.45;;
43857;SDS011;29507;51.284;5.758;2023-02-15T04:15:33;36.75;;;14.35;;
43857;SDS011;29507;51.284;5.758;2023-02-15T04:18:17;35.53;;;13.20;;
43857;SDS011;29507;51.284;5.758;2023-02-15T04:20:44;39.10;;;16.20;;
43857;SDS011;29507;51.284;5.758;2023-02-15T04:23:28;37.40;;;13.65;;
43857;SDS011;29507;51.284;5.758;2023-02-15T04:26:12;40.35;;;14.23;;
43857;SDS011;29507;51.284;5.758;2023-02-15T04:28:38;40.92;;;14.65;;
43857;SDS011;29507;51.284;5.758;2023-02-15T04:31:04;35.10;;;14.20;;
43857;SDS011;29507;51.284;5.758;2023-02-15T04:33:29;37.60;;;14.02;;
43857;SDS011;29507;51.284;5.758;2023-02-15T04:35:55;41.38;;;14.63;;
43857;SDS011;29507;51.284;5.758;2023-02-15T04:38:21;44.13;;;14.07;;
43857;SDS011;29507;51.284;5.758;2023-02-15T04:40:50;37.97;;;14.57;;
43857;SDS011;29507;51.284;5.758;2023-02-15T04:43:17;31.63;;;12.82;;
43857;SDS011;29507;51.284;5.758;2023-02-15T04:45:52;43.13;;;14.82;;
43857;SDS011;29507;51.284;5.758;2023-02-15T04:48:18;31.15;;;13.60;;
43857;SDS011;29507;51.284;5.758;2023-02-15T04:50:44;37.88;;;13.63;;
43857;SDS011;29507;51.284;5.758;2023-02-15T04:53:10;34.67;;;13.40;;
43857;SDS011;29507;51.284;5.758;2023-02-15T04:55:36;39.58;;;14.52;;
43857;SDS011;29507;51.284;5.758;2023-02-15T04:58:01;43.00;;;15.40;;
43857;SDS011;29507;51.284;5.758;2023-02-15T05:00:27;36.92;;;14.18;;
43857;SDS011;29507;51.284;5.758;2023-02-15T05:02:53;33.17;;;13.30;;
43857;SDS011;29507;51.284;5.758;2023-02-15T05:05:18;40.70;;;14.45;;
43857;SDS011;29507;51.284;5.758;2023-02-15T05:07:44;35.92;;;14.07;;
43857;SDS011;29507;51.284;5.758;2023-02-15T05:10:10;39.78;;;14.02;;
43857;SDS011;29507;51.284;5.758;2023-02-15T05:12:35;38.20;;;14.63;;
43857;SDS011;29507;51.284;5.758;2023-02-15T05:15:01;34.00;;;14.02;;
43857;SDS011;29507;51.284;5.758;2023-02-15T05:17:26;35.78;;;14.82;;
43857;SDS011;29507;51.284;5.758;2023-02-15T05:19:52;42.40;;;14.38;;
43857;SDS011;29507;51.284;5.758;2023-02-15T05:22:17;35.50;;;15.13;;
43857;SDS011;29507;51.284;5.758;2023-02-15T05:24:43;42.30;;;15.88;;
43857;SDS011;29507;51.284;5.758;2023-02-15T05:27:27;35.80;;;14.65;;
43857;SDS011;29507;51.284;5.758;2023-02-15T05:30:11;46.28;;;16.23;;
43857;SDS011;29507;51.284;5.758;2023-02-15T05:32:38;38.80;;;15.52;;
43857;SDS011;29507;51.284;5.758;2023-02-15T05:35:04;35.70;;;15.40;;
43857;SDS011;29507;51.284;5.758;2023-02-15T05:37:30;38.75;;;13.45;;
43857;SDS011;29507;51.284;5.758;2023-02-15T05:39:56;41.15;;;14.20;;
43857;SDS011;29507;51.284;5.758;2023-02-15T05:42:21;41.85;;;15.20;;
43857;SDS011;29507;51.284;5.758;2023-02-15T05:44:47;33.42;;;15.05;;
43857;SDS011;29507;51.284;5.758;2023-02-15T05:47:13;39.85;;;14.23;;
43857;SDS011;29507;51.284;5.758;2023-02-15T05:49:38;36.63;;;12.88;;
43857;SDS011;29507;51.284;5.758;2023-02-15T05:52:04;32.97;;;14.57;;
43857;SDS011;29507;51.284;5.758;2023-02-15T05:54:29;38.10;;;13.85;;
43857;SDS011;29507;51.284;5.758;2023-02-15T05:56:55;38.88;;;14.48;;
43857;SDS011;29507;51.284;5.758;2023-02-15T05:59:20;41.65;;;14.40;;
43857;SDS011;29507;51.284;5.758;2023-02-15T06:01:46;36.50;;;13.63;;
43857;SDS011;29507;51.284;5.758;2023-02-15T06:04:12;34.78;;;13.85;;
43857;SDS011;29507;51.284;5.758;2023-02-15T06:06:38;38.75;;;15.00;;
43857;SDS011;29507;51.284;5.758;2023-02-15T06:09:03;47.38;;;16.05;;
43857;SDS011;29507;51.284;5.758;2023-02-15T06:11:29;41.80;;;16.08;;
43857;SDS011;29507;51.284;5.758;2023-02-15T06:13:55;41.03;;;14.90;;
43857;SDS011;29507;51.284;5.758;2023-02-15T06:16:21;45.25;;;14.38;;
43857;SDS011;29507;51.284;5.758;2023-02-15T06:18:46;45.75;;;15.57;;
43857;SDS011;29507;51.284;5.758;2023-02-15T06:21:12;44.13;;;15.85;;
43857;SDS011;29507;51.284;5.758;2023-02-15T06:23:38;44.38;;;15.35;;
43857;SDS011;29507;51.284;5.758;2023-02-15T06:26:03;53.33;;;15.82;;
43857;SDS011;29507;51.284;5.758;2023-02-15T06:28:29;42.72;;;16.30;;
43857;SDS011;29507;51.284;5.758;2023-02-15T06:30:54;36.40;;;14.27;;
43857;SDS011;29507;51.284;5.758;2023-02-15T06:33:20;34.90;;;13.27;;
43857;SDS011;29507;51.284;5.758;2023-02-15T06:35:46;49.25;;;16.13;;
43857;SDS011;29507;51.284;5.758;2023-02-15T06:38:12;35.15;;;15.00;;
43857;SDS011;29507;51.284;5.758;2023-02-15T06:40:37;39.50;;;14.20;;
43857;SDS011;29507;51.284;5.758;2023-02-15T06:43:03;39.15;;;14.73;;
43857;SDS011;29507;51.284;5.758;2023-02-15T06:45:29;49.03;;;15.50;;
43857;SDS011;29507;51.284;5.758;2023-02-15T06:47:54;36.70;;;15.40;;
43857;SDS011;29507;51.284;5.758;2023-02-15T06:50:21;46.75;;;15.30;;
43857;SDS011;29507;51.284;5.758;2023-02-15T06:52:46;38.10;;;14.40;;
43857;SDS011;29507;51.284;5.758;2023-02-15T06:55:12;43.22;;;14.93;;
43857;SDS011;29507;51.284;5.758;2023-02-15T06:57:37;51.08;;;17.33;;
43857;SDS011;29507;51.284;5.758;2023-02-15T07:00:03;41.63;;;15.50;;
43857;SDS011;29507;51.284;5.758;2023-02-15T07:02:30;41.03;;;15.77;;
43857;SDS011;29507;51.284;5.758;2023-02-15T07:04:56;47.75;;;15.18;;
43857;SDS011;29507;51.284;5.758;2023-02-15T07:07:22;43.28;;;15.60;;
43857;SDS011;29507;51.284;5.758;2023-02-15T07:09:47;44.72;;;15.07;;
43857;SDS011;29507;51.284;5.758;2023-02-15T07:12:13;46.88;;;17.15;;
43857;SDS011;29507;51.284;5.758;2023-02-15T07:14:58;47.85;;;17.45;;
43857;SDS011;29507;51.284;5.758;2023-02-15T07:17:23;44.92;;;15.23;;
43857;SDS011;29507;51.284;5.758;2023-02-15T07:19:49;46.28;;;16.50;;
43857;SDS011;29507;51.284;5.758;2023-02-15T07:22:14;45.13;;;16.23;;
43857;SDS011;29507;51.284;5.758;2023-02-15T07:24:40;56.25;;;16.88;;
43857;SDS011;29507;51.284;5.758;2023-02-15T07:27:06;56.35;;;17.17;;
43857;SDS011;29507;51.284;5.758;2023-02-15T07:29:32;52.47;;;17.08;;
43857;SDS011;29507;51.284;5.758;2023-02-15T07:31:58;54.45;;;19.15;;
43857;SDS011;29507;51.284;5.758;2023-02-15T07:34:23;61.10;;;17.02;;
43857;SDS011;29507;51.284;5.758;2023-02-15T07:36:52;61.78;;;20.13;;
43857;SDS011;29507;51.284;5.758;2023-02-15T07:39:18;52.95;;;16.70;;
43857;SDS011;29507;51.284;5.758;2023-02-15T07:41:44;52.95;;;18.30;;
43857;SDS011;29507;51.284;5.758;2023-02-15T07:44:13;61.67;;;20.10;;
43857;SDS011;29507;51.284;5.758;2023-02-15T07:46:42;60.10;;;19.67;;
43857;SDS011;29507;51.284;5.758;2023-02-15T07:49:08;60.58;;;19.00;;
43857;SDS011;29507;51.284;5.758;2023-02-15T07:51:34;51.58;;;17.88;;
43857;SDS011;29507;51.284;5.758;2023-02-15T07:53:59;58.08;;;18.15;;
43857;SDS011;29507;51.284;5.758;2023-02-15T07:56:25;70.00;;;19.65;;
43857;SDS011;29507;51.284;5.758;2023-02-15T07:58:50;56.45;;;19.27;;
43857;SDS011;29507;51.284;5.758;2023-02-15T08:01:17;59.25;;;19.27;;
43857;SDS011;29507;51.284;5.758;2023-02-15T08:03:51;49.75;;;17.92;;
43857;SDS011;29507;51.284;5.758;2023-02-15T08:06:17;58.15;;;19.30;;
43857;SDS011;29507;51.284;5.758;2023-02-15T08:08:43;63.47;;;19.63;;
43857;SDS011;29507;51.284;5.758;2023-02-15T08:14:17;55.63;;;18.15;;
43857;SDS011;29507;51.284;5.758;2023-02-15T08:16:46;67.47;;;19.50;;
43857;SDS011;29507;51.284;5.758;2023-02-15T08:19:16;53.58;;;19.27;;
43857;SDS011;29507;51.284;5.758;2023-02-15T08:21:46;50.40;;;19.45;;
43857;SDS011;29507;51.284;5.758;2023-02-15T08:24:15;51.22;;;18.75;;
43857;SDS011;29507;51.284;5.758;2023-02-15T08:26:42;54.05;;;20.25;;
43857;SDS011;29507;51.284;5.758;2023-02-15T08:29:10;55.47;;;19.20;;
43857;SDS011;29507;51.284;5.758;2023-02-15T08:31:35;57.15;;;18.17;;
43857;SDS011;29507;51.284;5.758;2023-02-15T08:34:02;58.53;;;20.02;;
43857;SDS011;29507;51.284;5.758;2023-02-15T08:36:31;62.25;;;20.77;;
43857;SDS011;29507;51.284;5.758;2023-02-15T08:38:57;55.63;;;19.25;;
43857;SDS011;29507;51.284;5.758;2023-02-15T08:41:25;61.90;;;21.42;;
43857;SDS011;29507;51.284;5.758;2023-02-15T08:43:56;52.55;;;19.45;;
43857;SDS011;29507;51.284;5.758;2023-02-15T08:46:24;55.47;;;18.57;;
43857;SDS011;29507;51.284;5.758;2023-02-15T08:48:51;59.92;;;19.45;;
43857;SDS011;29507;51.284;5.758;2023-02-15T08:51:21;51.40;;;18.58;;
43857;SDS011;29507;51.284;5.758;2023-02-15T08:53:53;55.35;;;20.55;;
43857;SDS011;29507;51.284;5.758;2023-02-15T08:58:49;52.13;;;17.80;;
43857;SDS011;29507;51.284;5.758;2023-02-15T09:01:16;60.22;;;21.40;;
43857;SDS011;29507;51.284;5.758;2023-02-15T09:03:45;62.63;;;19.38;;
43857;SDS011;29507;51.284;5.758;2023-02-15T09:06:12;59.88;;;20.90;;
43857;SDS011;29507;51.284;5.758;2023-02-15T09:08:38;64.35;;;21.58;;
43857;SDS011;29507;51.284;5.758;2023-02-15T09:11:05;58.00;;;21.65;;
43857;SDS011;29507;51.284;5.758;2023-02-15T09:13:32;52.05;;;19.48;;
43857;SDS011;29507;51.284;5.758;2023-02-15T09:15:59;51.45;;;20.02;;
43857;SDS011;29507;51.284;5.758;2023-02-15T09:18:30;50.22;;;19.80;;
43857;SDS011;29507;51.284;5.758;2023-02-15T09:21:03;51.40;;;20.13;;
43857;SDS011;29507;51.284;5.758;2023-02-15T09:23:41;54.22;;;20.95;;
43857;SDS011;29507;51.284;5.758;2023-02-15T09:26:11;53.88;;;20.80;;
43857;SDS011;29507;51.284;5.758;2023-02-15T09:28:38;50.85;;;20.45;;
43857;SDS011;29507;51.284;5.758;2023-02-15T09:31:15;50.83;;;20.92;;
43857;SDS011;29507;51.284;5.758;2023-02-15T09:33:43;41.05;;;18.20;;
43857;SDS011;29507;51.284;5.758;2023-02-15T09:36:16;44.10;;;19.50;;
43857;SDS011;29507;51.284;5.758;2023-02-15T09:38:46;43.08;;;18.67;;
43857;SDS011;29507;51.284;5.758;2023-02-15T09:43:48;38.15;;;17.67;;
43857;SDS011;29507;51.284;5.758;2023-02-15T09:46:41;41.30;;;17.42;;
43857;SDS011;29507;51.284;5.758;2023-02-15T09:49:22;42.80;;;17.50;;
43857;SDS011;29507;51.284;5.758;2023-02-15T09:54:39;33.72;;;17.00;;
43857;SDS011;29507;51.284;5.758;2023-02-15T09:57:22;37.15;;;16.77;;
43857;SDS011;29507;51.284;5.758;2023-02-15T09:59:54;32.30;;;15.65;;
43857;SDS011;29507;51.284;5.758;2023-02-15T10:02:37;35.35;;;15.70;;
43857;SDS011;29507;51.284;5.758;2023-02-15T10:11:03;32.58;;;14.38;;
43857;SDS011;29507;51.284;5.758;2023-02-15T10:14:14;35.72;;;14.65;;
43857;SDS011;29507;51.284;5.758;2023-02-15T10:17:11;28.92;;;15.38;;
43857;SDS011;29507;51.284;5.758;2023-02-15T10:22:22;30.08;;;13.85;;
43857;SDS011;29507;51.284;5.758;2023-02-15T10:28:14;26.38;;;13.25;;
43857;SDS011;29507;51.284;5.758;2023-02-15T10:30:49;25.38;;;13.23;;
43857;SDS011;29507;51.284;5.758;2023-02-15T10:36:27;28.63;;;13.82;;
43857;SDS011;29507;51.284;5.758;2023-02-15T10:47:32;29.08;;;13.15;;
43857;SDS011;29507;51.284;5.758;2023-02-15T10:50:16;27.25;;;13.20;;
43857;SDS011;29507;51.284;5.758;2023-02-15T10:53:11;26.05;;;12.98;;
43857;SDS011;29507;51.284;5.758;2023-02-15T11:01:00;27.30;;;12.40;;
43857;SDS011;29507;51.284;5.758;2023-02-15T11:06:19;24.30;;;11.88;;
43857;SDS011;29507;51.284;5.758;2023-02-15T11:09:09;26.42;;;13.13;;
43857;SDS011;29507;51.284;5.758;2023-02-15T11:11:38;26.52;;;12.43;;
43857;SDS011;29507;51.284;5.758;2023-02-15T11:16:55;26.90;;;12.70;;
43857;SDS011;29507;51.284;5.758;2023-02-15T11:19:31;28.95;;;13.18;;
43857;SDS011;29507;51.284;5.758;2023-02-15T11:22:05;27.33;;;12.43;;
43857;SDS011;29507;51.284;5.758;2023-02-15T11:24:33;24.92;;;11.85;;
43857;SDS011;29507;51.284;5.758;2023-02-15T11:27:19;27.05;;;12.80;;
43857;SDS011;29507;51.284;5.758;2023-02-15T11:37:48;29.17;;;12.85;;
43857;SDS011;29507;51.284;5.758;2023-02-15T11:40:28;25.98;;;12.73;;
43857;SDS011;29507;51.284;5.758;2023-02-15T11:43:05;29.30;;;13.23;;
43857;SDS011;29507;51.284;5.758;2023-02-15T11:45:42;26.10;;;13.63;;
43857;SDS011;29507;51.284;5.758;2023-02-15T11:48:11;21.77;;;11.95;;
43857;SDS011;29507;51.284;5.758;2023-02-15T11:50:38;26.98;;;14.40;;
43857;SDS011;29507;51.284;5.758;2023-02-15T11:53:12;24.63;;;13.07;;
43857;SDS011;29507;51.284;5.758;2023-02-15T11:55:44;26.30;;;13.47;;
43857;SDS011;29507;51.284;5.758;2023-02-15T11:58:16;29.58;;;14.07;;
43857;SDS011;29507;51.284;5.758;2023-02-15T12:00:48;25.65;;;13.77;;
43857;SDS011;29507;51.284;5.758;2023-02-15T12:03:19;27.17;;;13.20;;
43857;SDS011;29507;51.284;5.758;2023-02-15T12:05:49;27.63;;;14.18;;
43857;SDS011;29507;51.284;5.758;2023-02-15T12:08:29;28.00;;;14.68;;
43857;SDS011;29507;51.284;5.758;2023-02-15T12:11:11;26.25;;;13.07;;
43857;SDS011;29507;51.284;5.758;2023-02-15T12:14:02;29.55;;;13.50;;
43857;SDS011;29507;51.284;5.758;2023-02-15T12:16:54;25.45;;;12.73;;
43857;SDS011;29507;51.284;5.758;2023-02-15T12:21:50;27.77;;;13.30;;
43857;SDS011;29507;51.284;5.758;2023-02-15T12:24:21;27.98;;;13.38;;
43857;SDS011;29507;51.284;5.758;2023-02-15T12:27:13;29.27;;;13.68;;
43857;SDS011;29507;51.284;5.758;2023-02-15T12:29:42;26.23;;;13.23;;
43857;SDS011;29507;51.284;5.758;2023-02-15T12:32:17;29.13;;;13.98;;
43857;SDS011;29507;51.284;5.758;2023-02-15T12:34:55;25.70;;;14.60;;
43857;SDS011;29507;51.284;5.758;2023-02-15T12:37:27;28.30;;;14.35;;
43857;SDS011;29507;51.284;5.758;2023-02-15T12:39:59;27.80;;;14.02;;
43857;SDS011;29507;51.284;5.758;2023-02-15T12:42:42;27.67;;;14.03;;
43857;SDS011;29507;51.284;5.758;2023-02-15T12:45:31;29.60;;;15.05;;
43857;SDS011;29507;51.284;5.758;2023-02-15T12:48:09;25.05;;;13.73;;
43857;SDS011;29507;51.284;5.758;2023-02-15T12:50:35;30.77;;;14.40;;
43857;SDS011;29507;51.284;5.758;2023-02-15T12:53:14;26.77;;;14.45;;
43857;SDS011;29507;51.284;5.758;2023-02-15T12:56:04;25.38;;;13.48;;
43857;SDS011;29507;51.284;5.758;2023-02-15T12:58:38;29.67;;;14.30;;
43857;SDS011;29507;51.284;5.758;2023-02-15T13:01:18;25.38;;;14.40;;
43857;SDS011;29507;51.284;5.758;2023-02-15T13:06:26;26.95;;;12.93;;
43857;SDS011;29507;51.284;5.758;2023-02-15T13:08:53;26.73;;;13.60;;
43857;SDS011;29507;51.284;5.758;2023-02-15T13:11:25;24.95;;;14.25;;
43857;SDS011;29507;51.284;5.758;2023-02-15T13:16:31;24.92;;;13.30;;
43857;SDS011;29507;51.284;5.758;2023-02-15T13:19:10;29.95;;;13.68;;
43857;SDS011;29507;51.284;5.758;2023-02-15T13:21:48;35.45;;;13.60;;
43857;SDS011;29507;51.284;5.758;2023-02-15T13:24:33;30.73;;;14.95;;
43857;SDS011;29507;51.284;5.758;2023-02-15T13:27:05;26.95;;;14.32;;
43857;SDS011;29507;51.284;5.758;2023-02-15T13:29:41;25.35;;;13.48;;
43857;SDS011;29507;51.284;5.758;2023-02-15T13:34:47;23.88;;;13.50;;
43857;SDS011;29507;51.284;5.758;2023-02-15T13:37:21;24.63;;;13.27;;
43857;SDS011;29507;51.284;5.758;2023-02-15T13:40:15;28.75;;;13.40;;
43857;SDS011;29507;51.284;5.758;2023-02-15T13:42:49;24.75;;;13.05;;
43857;SDS011;29507;51.284;5.758;2023-02-15T13:56:26;26.13;;;12.55;;
43857;SDS011;29507;51.284;5.758;2023-02-15T14:02:01;25.48;;;11.32;;
43857;SDS011;29507;51.284;5.758;2023-02-15T14:07:38;26.50;;;10.45;;
43857;SDS011;29507;51.284;5.758;2023-02-15T14:15:44;25.13;;;10.93;;
43857;SDS011;29507;51.284;5.758;2023-02-15T14:26:29;29.33;;;10.90;;
43857;SDS011;29507;51.284;5.758;2023-02-15T14:29:13;27.50;;;10.90;;
43857;SDS011;29507;51.284;5.758;2023-02-15T14:31:42;26.08;;;11.20;;
43857;SDS011;29507;51.284;5.758;2023-02-15T14:34:18;25.70;;;11.75;;
43857;SDS011;29507;51.284;5.758;2023-02-15T14:36:54;25.75;;;11.10;;
43857;SDS011;29507;51.284;5.758;2023-02-15T14:39:26;25.50;;;11.43;;
43857;SDS011;29507;51.284;5.758;2023-02-15T14:42:34;27.17;;;10.68;;
43857;SDS011;29507;51.284;5.758;2023-02-15T14:48:02;32.58;;;11.38;;
43857;SDS011;29507;51.284;5.758;2023-02-15T14:50:40;31.00;;;11.52;;
43857;SDS011;29507;51.284;5.758;2023-02-15T14:58:35;27.80;;;11.20;;
43857;SDS011;29507;51.284;5.758;2023-02-15T15:01:39;28.23;;;11.25;;
43857;SDS011;29507;51.284;5.758;2023-02-15T15:04:06;25.48;;;11.32;;
43857;SDS011;29507;51.284;5.758;2023-02-15T15:06:39;28.70;;;12.32;;
43857;SDS011;29507;51.284;5.758;2023-02-15T15:09:18;31.65;;;10.77;;
43857;SDS011;29507;51.284;5.758;2023-02-15T15:11:53;29.85;;;12.25;;
43857;SDS011;29507;51.284;5.758;2023-02-15T15:14:38;27.30;;;11.82;;
43857;SDS011;29507;51.284;5.758;2023-02-15T15:17:08;29.70;;;12.27;;
43857;SDS011;29507;51.284;5.758;2023-02-15T15:22:21;32.60;;;12.75;;
43857;SDS011;29507;51.284;5.758;2023-02-15T15:24:50;26.98;;;11.48;;
43857;SDS011;29507;51.284;5.758;2023-02-15T15:41:40;32.67;;;12.52;;
43857;SDS011;29507;51.284;5.758;2023-02-15T15:49:28;26.80;;;12.43;;
43857;SDS011;29507;51.284;5.758;2023-02-15T15:51:59;28.88;;;12.77;;
43857;SDS011;29507;51.284;5.758;2023-02-15T15:54:26;29.55;;;13.25;;
43857;SDS011;29507;51.284;5.758;2023-02-15T15:57:00;27.50;;;12.45;;
43857;SDS011;29507;51.284;5.758;2023-02-15T15:59:33;32.05;;;12.70;;
43857;SDS011;29507;51.284;5.758;2023-02-15T16:02:11;27.90;;;12.38;;
43857;SDS011;29507;51.284;5.758;2023-02-15T16:04:40;30.05;;;12.00;;
43857;SDS011;29507;51.284;5.758;2023-02-15T16:07:39;28.33;;;12.07;;
43857;SDS011;29507;51.284;5.758;2023-02-15T16:09:59;30.15;;;12.93;;
43857;SDS011;29507;51.284;5.758;2023-02-15T16:12:33;30.33;;;13.38;;
43857;SDS011;29507;51.284;5.758;2023-02-15T16:15:01;28.95;;;11.70;;
43857;SDS011;29507;51.284;5.758;2023-02-15T16:17:37;30.27;;;12.60;;
43857;SDS011;29507;51.284;5.758;2023-02-15T16:20:14;27.42;;;11.45;;
43857;SDS011;29507;51.284;5.758;2023-02-15T16:22:43;29.60;;;13.27;;
43857;SDS011;29507;51.284;5.758;2023-02-15T16:27:40;25.80;;;11.63;;
43857;SDS011;29507;51.284;5.758;2023-02-15T16:30:26;33.03;;;12.90;;
43857;SDS011;29507;51.284;5.758;2023-02-15T16:33:05;38.15;;;14.18;;
43857;SDS011;29507;51.284;5.758;2023-02-15T16:35:59;26.42;;;11.20;;
43857;SDS011;29507;51.284;5.758;2023-02-15T16:41:20;29.55;;;13.07;;
43857;SDS011;29507;51.284;5.758;2023-02-15T16:43:52;33.30;;;13.75;;
43857;SDS011;29507;51.284;5.758;2023-02-15T16:46:26;29.77;;;13.00;;
43857;SDS011;29507;51.284;5.758;2023-02-15T16:48:55;28.52;;;12.13;;
43857;SDS011;29507;51.284;5.758;2023-02-15T16:51:27;32.13;;;14.13;;
43857;SDS011;29507;51.284;5.758;2023-02-15T16:53:54;33.00;;;13.55;;
43857;SDS011;29507;51.284;5.758;2023-02-15T16:56:25;31.95;;;12.43;;
43857;SDS011;29507;51.284;5.758;2023-02-15T16:58:55;35.95;;;13.65;;
43857;SDS011;29507;51.284;5.758;2023-02-15T17:01:23;28.23;;;13.77;;
43857;SDS011;29507;51.284;5.758;2023-02-15T17:03:51;34.08;;;13.95;;
43857;SDS011;29507;51.284;5.758;2023-02-15T17:06:37;33.35;;;13.70;;
43857;SDS011;29507;51.284;5.758;2023-02-15T17:09:06;32.22;;;14.30;;
43857;SDS011;29507;51.284;5.758;2023-02-15T17:11:43;31.30;;;13.60;;
43857;SDS011;29507;51.284;5.758;2023-02-15T17:14:10;29.40;;;13.00;;
43857;SDS011;29507;51.284;5.758;2023-02-15T17:16:46;32.13;;;15.13;;
43857;SDS011;29507;51.284;5.758;2023-02-15T17:19:21;33.83;;;14.25;;